sensor_id;sensor_type;location;lat;lon;timestamp;P1;durP1;ratioP1;P2;durP2;ratioP2
18159;SDS011;9205;52.032;4.314;2023-08-01T00:00:50;7.47;;;2.33;;
18159;SDS011;9205;52.032;4.314;2023-08-01T00:03:19;8.03;;;2.90;;
18159;SDS011;9205;52.032;4.314;2023-08-01T00:05:46;7.37;;;2.40;;
18159;SDS011;9205;52.032;4.314;2023-08-01T00:08:13;5.67;;;2.60;;
18159;SDS011;9205;52.032;4.314;2023-08-01T00:10:41;9.63;;;2.60;;
18159;SDS011;9205;52.032;4.314;2023-08-01T00:13:08;5.73;;;2.53;;
18159;SDS011;9205;52.032;4.314;2023-08-01T00:15:36;5.33;;;2.20;;
18159;SDS011;9205;52.032;4.314;2023-08-01T00:18:03;6.90;;;2.57;;
18159;SDS011;9205;52.032;4.314;2023-08-01T00:20:32;7.97;;;2.90;;
18159;SDS011;9205;52.032;4.314;2023-08-01T00:22:59;5.83;;;2.20;;
18159;SDS011;9205;52.032;4.314;2023-08-01T00:25:26;6.40;;;2.37;;
18159;SDS011;9205;52.032;4.314;2023-08-01T00:27:53;7.80;;;2.30;;
18159;SDS011;9205;52.032;4.314;2023-08-01T00:30:21;5.17;;;2.23;;
18159;SDS011;9205;52.032;4.314;2023-08-01T00:32:49;10.43;;;2.80;;
18159;SDS011;9205;52.032;4.314;2023-08-01T00:35:16;6.40;;;2.20;;
18159;SDS011;9205;52.032;4.314;2023-08-01T00:37:45;3.70;;;2.20;;
18159;SDS011;9205;52.032;4.314;2023-08-01T00:40:12;8.03;;;2.20;;
18159;SDS011;9205;52.032;4.314;2023-08-01T00:42:39;7.00;;;2.40;;
18159;SDS011;9205;52.032;4.314;2023-08-01T00:45:07;7.83;;;2.63;;
18159;SDS011;9205;52.032;4.314;2023-08-01T00:47:36;9.20;;;2.93;;
18159;SDS011;9205;52.032;4.314;2023-08-01T00:50:03;7.17;;;2.47;;
18159;SDS011;9205;52.032;4.314;2023-08-01T00:52:32;4.23;;;2.20;;
18159;SDS011;9205;52.032;4.314;2023-08-01T00:55:01;9.37;;;2.37;;
18159;SDS011;9205;52.032;4.314;2023-08-01T00:57:29;10.20;;;2.77;;
18159;SDS011;9205;52.032;4.314;2023-08-01T00:59:56;4.63;;;2.03;;
18159;SDS011;9205;52.032;4.314;2023-08-01T01:02:24;6.67;;;2.53;;
18159;SDS011;9205;52.032;4.314;2023-08-01T01:04:51;8.63;;;2.20;;
18159;SDS011;9205;52.032;4.314;2023-08-01T01:07:18;9.47;;;2.60;;
18159;SDS011;9205;52.032;4.314;2023-08-01T01:09:48;5.80;;;2.30;;
18159;SDS011;9205;52.032;4.314;2023-08-01T01:12:17;6.73;;;2.40;;
18159;SDS011;9205;52.032;4.314;2023-08-01T01:14:44;4.23;;;2.10;;
18159;SDS011;9205;52.032;4.314;2023-08-01T01:17:11;8.73;;;2.30;;
18159;SDS011;9205;52.032;4.314;2023-08-01T01:19:38;7.57;;;2.30;;
18159;SDS011;9205;52.032;4.314;2023-08-01T01:22:07;10.70;;;2.70;;
18159;SDS011;9205;52.032;4.314;2023-08-01T01:24:36;4.43;;;2.03;;
18159;SDS011;9205;52.032;4.314;2023-08-01T01:27:07;6.30;;;2.67;;
18159;SDS011;9205;52.032;4.314;2023-08-01T01:29:35;9.97;;;2.43;;
18159;SDS011;9205;52.032;4.314;2023-08-01T01:32:05;6.73;;;2.13;;
18159;SDS011;9205;52.032;4.314;2023-08-01T01:34:34;13.10;;;3.13;;
18159;SDS011;9205;52.032;4.314;2023-08-01T01:37:01;6.83;;;2.30;;
18159;SDS011;9205;52.032;4.314;2023-08-01T01:39:30;7.90;;;3.00;;
18159;SDS011;9205;52.032;4.314;2023-08-01T01:41:57;6.67;;;2.07;;
18159;SDS011;9205;52.032;4.314;2023-08-01T01:44:24;8.47;;;2.80;;
18159;SDS011;9205;52.032;4.314;2023-08-01T01:46:51;11.80;;;2.77;;
18159;SDS011;9205;52.032;4.314;2023-08-01T01:49:19;9.70;;;2.97;;
18159;SDS011;9205;52.032;4.314;2023-08-01T01:51:46;10.77;;;2.57;;
18159;SDS011;9205;52.032;4.314;2023-08-01T01:54:13;7.13;;;2.40;;
18159;SDS011;9205;52.032;4.314;2023-08-01T01:56:42;7.53;;;2.30;;
18159;SDS011;9205;52.032;4.314;2023-08-01T01:59:09;8.67;;;2.93;;
18159;SDS011;9205;52.032;4.314;2023-08-01T02:01:36;12.13;;;3.33;;
18159;SDS011;9205;52.032;4.314;2023-08-01T02:04:04;9.13;;;2.63;;
18159;SDS011;9205;52.032;4.314;2023-08-01T02:06:31;6.53;;;2.80;;
18159;SDS011;9205;52.032;4.314;2023-08-01T02:09:00;7.33;;;2.60;;
18159;SDS011;9205;52.032;4.314;2023-08-01T02:11:29;8.17;;;2.70;;
18159;SDS011;9205;52.032;4.314;2023-08-01T02:13:57;10.93;;;2.40;;
18159;SDS011;9205;52.032;4.314;2023-08-01T02:16:24;9.80;;;2.97;;
18159;SDS011;9205;52.032;4.314;2023-08-01T02:18:51;7.03;;;2.67;;
18159;SDS011;9205;52.032;4.314;2023-08-01T02:21:19;8.67;;;2.90;;
18159;SDS011;9205;52.032;4.314;2023-08-01T02:23:46;11.77;;;3.17;;
18159;SDS011;9205;52.032;4.314;2023-08-01T02:26:13;10.50;;;2.90;;
18159;SDS011;9205;52.032;4.314;2023-08-01T02:28:40;8.53;;;2.60;;
18159;SDS011;9205;52.032;4.314;2023-08-01T02:31:09;8.43;;;3.10;;
18159;SDS011;9205;52.032;4.314;2023-08-01T02:33:37;7.80;;;3.27;;
18159;SDS011;9205;52.032;4.314;2023-08-01T02:36:04;6.73;;;2.73;;
18159;SDS011;9205;52.032;4.314;2023-08-01T02:38:31;8.40;;;2.97;;
18159;SDS011;9205;52.032;4.314;2023-08-01T02:40:58;7.83;;;2.83;;
18159;SDS011;9205;52.032;4.314;2023-08-01T02:43:25;7.67;;;3.03;;
18159;SDS011;9205;52.032;4.314;2023-08-01T02:45:53;9.20;;;3.30;;
18159;SDS011;9205;52.032;4.314;2023-08-01T02:48:21;8.80;;;2.70;;
18159;SDS011;9205;52.032;4.314;2023-08-01T02:50:49;7.77;;;2.87;;
18159;SDS011;9205;52.032;4.314;2023-08-01T02:53:16;12.83;;;3.30;;
18159;SDS011;9205;52.032;4.314;2023-08-01T02:55:43;7.70;;;3.10;;
18159;SDS011;9205;52.032;4.314;2023-08-01T02:58:12;7.33;;;2.67;;
18159;SDS011;9205;52.032;4.314;2023-08-01T03:00:39;11.33;;;3.23;;
18159;SDS011;9205;52.032;4.314;2023-08-01T03:03:08;11.83;;;3.20;;
18159;SDS011;9205;52.032;4.314;2023-08-01T03:05:37;10.57;;;3.10;;
18159;SDS011;9205;52.032;4.314;2023-08-01T03:08:04;8.17;;;3.10;;
18159;SDS011;9205;52.032;4.314;2023-08-01T03:10:32;11.13;;;3.30;;
18159;SDS011;9205;52.032;4.314;2023-08-01T03:12:59;11.50;;;3.20;;
18159;SDS011;9205;52.032;4.314;2023-08-01T03:15:27;9.03;;;2.93;;
18159;SDS011;9205;52.032;4.314;2023-08-01T03:17:55;7.57;;;3.13;;
18159;SDS011;9205;52.032;4.314;2023-08-01T03:20:22;7.93;;;2.87;;
18159;SDS011;9205;52.032;4.314;2023-08-01T03:22:51;6.73;;;2.80;;
18159;SDS011;9205;52.032;4.314;2023-08-01T03:25:18;17.27;;;3.27;;
18159;SDS011;9205;52.032;4.314;2023-08-01T03:27:45;9.83;;;3.17;;
18159;SDS011;9205;52.032;4.314;2023-08-01T03:30:13;10.27;;;3.00;;
18159;SDS011;9205;52.032;4.314;2023-08-01T03:32:40;15.07;;;3.00;;
18159;SDS011;9205;52.032;4.314;2023-08-01T03:35:07;8.93;;;2.97;;
18159;SDS011;9205;52.032;4.314;2023-08-01T03:37:34;5.50;;;2.33;;
18159;SDS011;9205;52.032;4.314;2023-08-01T03:40:05;10.90;;;2.87;;
18159;SDS011;9205;52.032;4.314;2023-08-01T03:42:34;9.90;;;2.83;;
18159;SDS011;9205;52.032;4.314;2023-08-01T03:45:02;8.27;;;2.57;;
18159;SDS011;9205;52.032;4.314;2023-08-01T03:47:30;9.10;;;2.57;;
18159;SDS011;9205;52.032;4.314;2023-08-01T03:49:57;9.83;;;2.73;;
18159;SDS011;9205;52.032;4.314;2023-08-01T03:52:25;8.83;;;2.60;;
18159;SDS011;9205;52.032;4.314;2023-08-01T03:54:53;6.67;;;2.23;;
18159;SDS011;9205;52.032;4.314;2023-08-01T03:57:23;10.93;;;2.63;;
18159;SDS011;9205;52.032;4.314;2023-08-01T03:59:50;10.13;;;2.50;;
18159;SDS011;9205;52.032;4.314;2023-08-01T04:02:17;4.90;;;2.20;;
18159;SDS011;9205;52.032;4.314;2023-08-01T04:04:44;11.83;;;2.50;;
18159;SDS011;9205;52.032;4.314;2023-08-01T04:07:12;7.17;;;2.30;;
18159;SDS011;9205;52.032;4.314;2023-08-01T04:09:39;9.53;;;2.57;;
18159;SDS011;9205;52.032;4.314;2023-08-01T04:12:06;9.77;;;2.60;;
18159;SDS011;9205;52.032;4.314;2023-08-01T04:14:35;7.20;;;2.27;;
18159;SDS011;9205;52.032;4.314;2023-08-01T04:17:03;15.30;;;2.50;;
18159;SDS011;9205;52.032;4.314;2023-08-01T04:19:30;8.17;;;2.33;;
18159;SDS011;9205;52.032;4.314;2023-08-01T04:21:57;10.67;;;2.53;;
18159;SDS011;9205;52.032;4.314;2023-08-01T04:24:24;7.00;;;2.00;;
18159;SDS011;9205;52.032;4.314;2023-08-01T04:26:52;10.53;;;1.80;;
18159;SDS011;9205;52.032;4.314;2023-08-01T04:29:20;8.47;;;2.27;;
18159;SDS011;9205;52.032;4.314;2023-08-01T04:31:48;6.00;;;2.13;;
18159;SDS011;9205;52.032;4.314;2023-08-01T04:34:16;9.37;;;2.30;;
18159;SDS011;9205;52.032;4.314;2023-08-01T04:36:43;5.27;;;2.10;;
18159;SDS011;9205;52.032;4.314;2023-08-01T04:39:10;6.17;;;2.30;;
18159;SDS011;9205;52.032;4.314;2023-08-01T04:41:37;6.53;;;2.30;;
18159;SDS011;9205;52.032;4.314;2023-08-01T04:44:04;10.43;;;2.70;;
18159;SDS011;9205;52.032;4.314;2023-08-01T04:46:31;8.87;;;2.33;;
18159;SDS011;9205;52.032;4.314;2023-08-01T04:49:00;10.53;;;2.30;;
18159;SDS011;9205;52.032;4.314;2023-08-01T04:51:27;6.33;;;2.43;;
18159;SDS011;9205;52.032;4.314;2023-08-01T04:53:54;6.50;;;2.40;;
18159;SDS011;9205;52.032;4.314;2023-08-01T04:56:21;8.23;;;2.20;;
18159;SDS011;9205;52.032;4.314;2023-08-01T04:58:49;6.77;;;2.30;;
18159;SDS011;9205;52.032;4.314;2023-08-01T05:01:16;7.07;;;2.50;;
18159;SDS011;9205;52.032;4.314;2023-08-01T05:03:43;6.03;;;2.30;;
18159;SDS011;9205;52.032;4.314;2023-08-01T05:06:12;5.23;;;2.60;;
18159;SDS011;9205;52.032;4.314;2023-08-01T05:08:39;11.37;;;2.57;;
18159;SDS011;9205;52.032;4.314;2023-08-01T05:11:06;7.70;;;2.60;;
18159;SDS011;9205;52.032;4.314;2023-08-01T05:13:33;9.60;;;2.27;;
18159;SDS011;9205;52.032;4.314;2023-08-01T05:16:00;5.67;;;1.97;;
18159;SDS011;9205;52.032;4.314;2023-08-01T05:18:28;7.97;;;2.33;;
18159;SDS011;9205;52.032;4.314;2023-08-01T05:20:55;7.17;;;2.10;;
18159;SDS011;9205;52.032;4.314;2023-08-01T05:23:24;5.83;;;2.30;;
18159;SDS011;9205;52.032;4.314;2023-08-01T05:25:51;6.63;;;2.30;;
18159;SDS011;9205;52.032;4.314;2023-08-01T05:28:18;8.83;;;2.50;;
18159;SDS011;9205;52.032;4.314;2023-08-01T05:30:46;8.20;;;2.23;;
18159;SDS011;9205;52.032;4.314;2023-08-01T05:33:14;3.83;;;1.80;;
18159;SDS011;9205;52.032;4.314;2023-08-01T05:35:41;6.27;;;2.17;;
18159;SDS011;9205;52.032;4.314;2023-08-01T05:38:08;7.17;;;2.33;;
18159;SDS011;9205;52.032;4.314;2023-08-01T05:40:37;5.73;;;2.10;;
18159;SDS011;9205;52.032;4.314;2023-08-01T05:43:05;7.23;;;1.97;;
18159;SDS011;9205;52.032;4.314;2023-08-01T05:45:33;10.57;;;2.10;;
18159;SDS011;9205;52.032;4.314;2023-08-01T05:48:01;6.43;;;2.10;;
18159;SDS011;9205;52.032;4.314;2023-08-01T05:50:28;5.60;;;2.07;;
18159;SDS011;9205;52.032;4.314;2023-08-01T05:52:55;7.63;;;2.07;;
18159;SDS011;9205;52.032;4.314;2023-08-01T05:55:22;8.00;;;2.23;;
18159;SDS011;9205;52.032;4.314;2023-08-01T05:57:51;8.93;;;2.53;;
18159;SDS011;9205;52.032;4.314;2023-08-01T06:00:19;9.73;;;2.70;;
18159;SDS011;9205;52.032;4.314;2023-08-01T06:02:47;8.90;;;2.20;;
18159;SDS011;9205;52.032;4.314;2023-08-01T06:05:14;4.97;;;2.10;;
18159;SDS011;9205;52.032;4.314;2023-08-01T06:07:42;9.00;;;2.40;;
18159;SDS011;9205;52.032;4.314;2023-08-01T06:10:09;4.83;;;2.20;;
18159;SDS011;9205;52.032;4.314;2023-08-01T06:12:36;11.27;;;2.30;;
18159;SDS011;9205;52.032;4.314;2023-08-01T06:15:06;6.57;;;2.10;;
18159;SDS011;9205;52.032;4.314;2023-08-01T06:17:33;6.80;;;2.57;;
18159;SDS011;9205;52.032;4.314;2023-08-01T06:20:00;7.43;;;2.33;;
18159;SDS011;9205;52.032;4.314;2023-08-01T06:22:29;5.53;;;2.00;;
18159;SDS011;9205;52.032;4.314;2023-08-01T06:24:56;11.03;;;2.40;;
18159;SDS011;9205;52.032;4.314;2023-08-01T06:27:24;5.23;;;2.10;;
18159;SDS011;9205;52.032;4.314;2023-08-01T06:29:51;9.00;;;2.33;;
18159;SDS011;9205;52.032;4.314;2023-08-01T06:32:20;10.10;;;2.27;;
18159;SDS011;9205;52.032;4.314;2023-08-01T06:34:47;5.23;;;2.10;;
18159;SDS011;9205;52.032;4.314;2023-08-01T06:37:14;10.47;;;2.50;;
18159;SDS011;9205;52.032;4.314;2023-08-01T06:39:41;9.00;;;2.20;;
18159;SDS011;9205;52.032;4.314;2023-08-01T06:42:09;6.13;;;2.17;;
18159;SDS011;9205;52.032;4.314;2023-08-01T06:44:36;6.73;;;2.13;;
18159;SDS011;9205;52.032;4.314;2023-08-01T06:47:04;8.93;;;2.00;;
18159;SDS011;9205;52.032;4.314;2023-08-01T06:49:33;6.20;;;1.97;;
18159;SDS011;9205;52.032;4.314;2023-08-01T06:52:00;7.40;;;2.10;;
18159;SDS011;9205;52.032;4.314;2023-08-01T06:54:27;6.20;;;2.07;;
18159;SDS011;9205;52.032;4.314;2023-08-01T06:56:55;8.80;;;2.27;;
18159;SDS011;9205;52.032;4.314;2023-08-01T06:59:23;4.13;;;1.87;;
18159;SDS011;9205;52.032;4.314;2023-08-01T07:01:53;6.13;;;1.90;;
18159;SDS011;9205;52.032;4.314;2023-08-01T07:04:22;6.93;;;2.03;;
18159;SDS011;9205;52.032;4.314;2023-08-01T07:06:51;6.10;;;2.03;;
18159;SDS011;9205;52.032;4.314;2023-08-01T07:09:18;5.37;;;2.00;;
18159;SDS011;9205;52.032;4.314;2023-08-01T07:11:45;7.53;;;2.03;;
18159;SDS011;9205;52.032;4.314;2023-08-01T07:14:13;5.33;;;2.03;;
18159;SDS011;9205;52.032;4.314;2023-08-01T07:16:40;4.87;;;2.00;;
18159;SDS011;9205;52.032;4.314;2023-08-01T07:19:07;3.03;;;1.70;;
18159;SDS011;9205;52.032;4.314;2023-08-01T07:21:34;5.27;;;1.93;;
18159;SDS011;9205;52.032;4.314;2023-08-01T07:24:04;6.27;;;2.27;;
18159;SDS011;9205;52.032;4.314;2023-08-01T07:26:31;8.03;;;2.10;;
18159;SDS011;9205;52.032;4.314;2023-08-01T07:28:59;4.47;;;1.83;;
18159;SDS011;9205;52.032;4.314;2023-08-01T07:31:26;5.77;;;1.73;;
18159;SDS011;9205;52.032;4.314;2023-08-01T07:33:54;5.67;;;2.10;;
18159;SDS011;9205;52.032;4.314;2023-08-01T07:36:21;5.80;;;2.17;;
18159;SDS011;9205;52.032;4.314;2023-08-01T07:38:48;5.37;;;1.80;;
18159;SDS011;9205;52.032;4.314;2023-08-01T07:41:17;11.10;;;2.40;;
18159;SDS011;9205;52.032;4.314;2023-08-01T07:43:44;6.23;;;1.97;;
18159;SDS011;9205;52.032;4.314;2023-08-01T07:46:11;5.90;;;2.10;;
18159;SDS011;9205;52.032;4.314;2023-08-01T07:48:39;6.37;;;2.13;;
18159;SDS011;9205;52.032;4.314;2023-08-01T07:51:06;7.43;;;2.17;;
18159;SDS011;9205;52.032;4.314;2023-08-01T07:53:34;6.27;;;2.10;;
18159;SDS011;9205;52.032;4.314;2023-08-01T07:56:02;2.67;;;1.80;;
18159;SDS011;9205;52.032;4.314;2023-08-01T07:58:34;8.60;;;1.87;;
18159;SDS011;9205;52.032;4.314;2023-08-01T08:01:02;12.77;;;2.37;;
18159;SDS011;9205;52.032;4.314;2023-08-01T08:03:30;5.73;;;2.13;;
18159;SDS011;9205;52.032;4.314;2023-08-01T08:05:58;8.20;;;2.20;;
18159;SDS011;9205;52.032;4.314;2023-08-01T08:08:25;10.00;;;2.47;;
18159;SDS011;9205;52.032;4.314;2023-08-01T08:10:53;12.03;;;2.50;;
18159;SDS011;9205;52.032;4.314;2023-08-01T08:13:20;3.03;;;1.70;;
18159;SDS011;9205;52.032;4.314;2023-08-01T08:15:49;8.97;;;2.33;;
18159;SDS011;9205;52.032;4.314;2023-08-01T08:18:16;8.57;;;2.00;;
18159;SDS011;9205;52.032;4.314;2023-08-01T08:20:44;9.13;;;2.37;;
18159;SDS011;9205;52.032;4.314;2023-08-01T08:23:12;6.40;;;2.30;;
18159;SDS011;9205;52.032;4.314;2023-08-01T08:25:40;8.67;;;2.37;;
18159;SDS011;9205;52.032;4.314;2023-08-01T08:28:09;4.03;;;1.80;;
18159;SDS011;9205;52.032;4.314;2023-08-01T08:30:38;5.83;;;1.80;;
18159;SDS011;9205;52.032;4.314;2023-08-01T08:33:06;4.43;;;1.73;;
18159;SDS011;9205;52.032;4.314;2023-08-01T08:35:35;6.97;;;2.03;;
18159;SDS011;9205;52.032;4.314;2023-08-01T08:38:03;4.73;;;1.90;;
18159;SDS011;9205;52.032;4.314;2023-08-01T08:40:31;6.67;;;2.10;;
18159;SDS011;9205;52.032;4.314;2023-08-01T08:42:59;7.47;;;2.20;;
18159;SDS011;9205;52.032;4.314;2023-08-01T08:45:30;7.47;;;1.93;;
18159;SDS011;9205;52.032;4.314;2023-08-01T08:48:01;7.37;;;1.77;;
18159;SDS011;9205;52.032;4.314;2023-08-01T08:50:39;9.30;;;2.30;;
18159;SDS011;9205;52.032;4.314;2023-08-01T08:53:11;5.97;;;1.97;;
18159;SDS011;9205;52.032;4.314;2023-08-01T08:55:39;4.60;;;2.00;;
18159;SDS011;9205;52.032;4.314;2023-08-01T08:58:07;7.20;;;2.00;;
18159;SDS011;9205;52.032;4.314;2023-08-01T09:00:35;8.77;;;1.97;;
18159;SDS011;9205;52.032;4.314;2023-08-01T09:03:03;9.87;;;2.60;;
18159;SDS011;9205;52.032;4.314;2023-08-01T09:05:37;6.97;;;2.30;;
18159;SDS011;9205;52.032;4.314;2023-08-01T09:08:13;2.77;;;1.90;;
18159;SDS011;9205;52.032;4.314;2023-08-01T09:10:45;4.43;;;2.10;;
18159;SDS011;9205;52.032;4.314;2023-08-01T09:13:14;6.07;;;2.00;;
18159;SDS011;9205;52.032;4.314;2023-08-01T09:15:44;7.93;;;2.93;;
18159;SDS011;9205;52.032;4.314;2023-08-01T09:18:16;8.57;;;2.20;;
18159;SDS011;9205;52.032;4.314;2023-08-01T09:20:45;4.93;;;2.00;;
18159;SDS011;9205;52.032;4.314;2023-08-01T09:23:15;6.93;;;2.00;;
18159;SDS011;9205;52.032;4.314;2023-08-01T09:25:43;5.63;;;2.37;;
18159;SDS011;9205;52.032;4.314;2023-08-01T09:28:15;6.43;;;2.10;;
18159;SDS011;9205;52.032;4.314;2023-08-01T09:30:48;5.13;;;2.20;;
18159;SDS011;9205;52.032;4.314;2023-08-01T09:33:17;5.13;;;2.10;;
18159;SDS011;9205;52.032;4.314;2023-08-01T09:35:46;8.43;;;2.47;;
18159;SDS011;9205;52.032;4.314;2023-08-01T09:38:16;6.00;;;2.40;;
18159;SDS011;9205;52.032;4.314;2023-08-01T09:40:44;5.07;;;2.40;;
18159;SDS011;9205;52.032;4.314;2023-08-01T09:43:12;3.33;;;2.00;;
18159;SDS011;9205;52.032;4.314;2023-08-01T09:45:50;4.40;;;1.80;;
18159;SDS011;9205;52.032;4.314;2023-08-01T09:48:22;6.77;;;1.90;;
18159;SDS011;9205;52.032;4.314;2023-08-01T09:51:02;7.00;;;1.93;;
18159;SDS011;9205;52.032;4.314;2023-08-01T09:53:33;9.80;;;2.00;;
18159;SDS011;9205;52.032;4.314;2023-08-01T09:56:01;4.53;;;1.97;;
18159;SDS011;9205;52.032;4.314;2023-08-01T09:58:31;5.57;;;2.23;;
18159;SDS011;9205;52.032;4.314;2023-08-01T10:01:00;5.17;;;1.80;;
18159;SDS011;9205;52.032;4.314;2023-08-01T10:03:28;11.40;;;2.13;;
18159;SDS011;9205;52.032;4.314;2023-08-01T10:05:57;8.13;;;2.03;;
18159;SDS011;9205;52.032;4.314;2023-08-01T10:08:25;5.80;;;1.60;;
18159;SDS011;9205;52.032;4.314;2023-08-01T10:10:57;6.20;;;1.80;;
18159;SDS011;9205;52.032;4.314;2023-08-01T10:13:24;4.77;;;1.60;;
18159;SDS011;9205;52.032;4.314;2023-08-01T10:15:53;6.20;;;1.80;;
18159;SDS011;9205;52.032;4.314;2023-08-01T10:18:21;6.93;;;1.93;;
18159;SDS011;9205;52.032;4.314;2023-08-01T10:20:50;7.67;;;1.90;;
18159;SDS011;9205;52.032;4.314;2023-08-01T10:23:19;10.17;;;2.03;;
18159;SDS011;9205;52.032;4.314;2023-08-01T10:25:47;6.97;;;1.63;;
18159;SDS011;9205;52.032;4.314;2023-08-01T10:28:15;5.67;;;1.77;;
18159;SDS011;9205;52.032;4.314;2023-08-01T10:30:42;4.83;;;1.93;;
18159;SDS011;9205;52.032;4.314;2023-08-01T10:33:10;5.83;;;1.90;;
18159;SDS011;9205;52.032;4.314;2023-08-01T10:35:39;7.90;;;2.17;;
18159;SDS011;9205;52.032;4.314;2023-08-01T10:38:07;6.10;;;1.97;;
18159;SDS011;9205;52.032;4.314;2023-08-01T10:40:39;7.90;;;1.80;;
18159;SDS011;9205;52.032;4.314;2023-08-01T10:43:18;6.03;;;1.70;;
18159;SDS011;9205;52.032;4.314;2023-08-01T10:45:47;6.93;;;2.10;;
18159;SDS011;9205;52.032;4.314;2023-08-01T10:48:15;7.57;;;2.13;;
18159;SDS011;9205;52.032;4.314;2023-08-01T10:50:42;11.67;;;1.80;;
18159;SDS011;9205;52.032;4.314;2023-08-01T10:53:20;6.70;;;1.77;;
18159;SDS011;9205;52.032;4.314;2023-08-01T10:55:49;5.70;;;1.57;;
18159;SDS011;9205;52.032;4.314;2023-08-01T10:58:17;5.73;;;1.70;;
18159;SDS011;9205;52.032;4.314;2023-08-01T11:00:44;5.13;;;1.50;;
18159;SDS011;9205;52.032;4.314;2023-08-01T11:03:11;5.00;;;1.70;;
18159;SDS011;9205;52.032;4.314;2023-08-01T11:05:40;4.13;;;1.53;;
18159;SDS011;9205;52.032;4.314;2023-08-01T11:08:07;7.40;;;1.50;;
18159;SDS011;9205;52.032;4.314;2023-08-01T11:10:34;8.53;;;2.40;;
18159;SDS011;9205;52.032;4.314;2023-08-01T11:13:03;7.37;;;2.00;;
18159;SDS011;9205;52.032;4.314;2023-08-01T11:15:37;3.37;;;1.47;;
18159;SDS011;9205;52.032;4.314;2023-08-01T11:18:05;2.87;;;1.30;;
18159;SDS011;9205;52.032;4.314;2023-08-01T11:20:38;5.20;;;1.80;;
18159;SDS011;9205;52.032;4.314;2023-08-01T11:23:06;5.57;;;1.53;;
18159;SDS011;9205;52.032;4.314;2023-08-01T11:25:34;7.63;;;1.70;;
18159;SDS011;9205;52.032;4.314;2023-08-01T11:28:05;7.00;;;1.80;;
18159;SDS011;9205;52.032;4.314;2023-08-01T11:30:33;6.10;;;1.70;;
18159;SDS011;9205;52.032;4.314;2023-08-01T11:33:01;5.40;;;1.80;;
18159;SDS011;9205;52.032;4.314;2023-08-01T11:35:39;3.07;;;1.60;;
18159;SDS011;9205;52.032;4.314;2023-08-01T11:38:07;10.33;;;1.73;;
18159;SDS011;9205;52.032;4.314;2023-08-01T11:40:36;7.50;;;1.93;;
18159;SDS011;9205;52.032;4.314;2023-08-01T11:43:05;5.60;;;1.63;;
18159;SDS011;9205;52.032;4.314;2023-08-01T11:45:33;4.47;;;1.50;;
18159;SDS011;9205;52.032;4.314;2023-08-01T11:48:00;7.90;;;1.63;;
18159;SDS011;9205;52.032;4.314;2023-08-01T11:50:28;6.57;;;1.50;;
18159;SDS011;9205;52.032;4.314;2023-08-01T11:52:56;7.43;;;1.87;;
18159;SDS011;9205;52.032;4.314;2023-08-01T11:55:25;2.73;;;1.60;;
18159;SDS011;9205;52.032;4.314;2023-08-01T11:57:54;5.43;;;1.40;;
18159;SDS011;9205;52.032;4.314;2023-08-01T12:00:24;4.10;;;1.50;;
18159;SDS011;9205;52.032;4.314;2023-08-01T12:03:02;5.10;;;1.53;;
18159;SDS011;9205;52.032;4.314;2023-08-01T12:05:31;9.57;;;1.90;;
18159;SDS011;9205;52.032;4.314;2023-08-01T12:08:07;3.10;;;1.33;;
18159;SDS011;9205;52.032;4.314;2023-08-01T12:10:37;6.37;;;1.87;;
18159;SDS011;9205;52.032;4.314;2023-08-01T12:13:05;5.53;;;1.50;;
18159;SDS011;9205;52.032;4.314;2023-08-01T12:15:34;4.70;;;1.60;;
18159;SDS011;9205;52.032;4.314;2023-08-01T12:18:01;5.27;;;1.50;;
18159;SDS011;9205;52.032;4.314;2023-08-01T12:20:28;7.70;;;1.40;;
18159;SDS011;9205;52.032;4.314;2023-08-01T12:22:56;6.60;;;1.90;;
18159;SDS011;9205;52.032;4.314;2023-08-01T12:25:23;7.63;;;1.97;;
18159;SDS011;9205;52.032;4.314;2023-08-01T12:27:51;3.33;;;1.50;;
18159;SDS011;9205;52.032;4.314;2023-08-01T12:30:18;6.70;;;1.60;;
18159;SDS011;9205;52.032;4.314;2023-08-01T12:32:47;4.70;;;1.50;;
18159;SDS011;9205;52.032;4.314;2023-08-01T12:35:14;5.03;;;1.60;;
18159;SDS011;9205;52.032;4.314;2023-08-01T12:37:42;5.67;;;2.00;;
18159;SDS011;9205;52.032;4.314;2023-08-01T12:40:10;4.70;;;1.50;;
18159;SDS011;9205;52.032;4.314;2023-08-01T12:42:38;6.60;;;1.80;;
18159;SDS011;9205;52.032;4.314;2023-08-01T12:45:05;3.67;;;1.40;;
18159;SDS011;9205;52.032;4.314;2023-08-01T12:47:34;3.77;;;1.60;;
18159;SDS011;9205;52.032;4.314;2023-08-01T12:50:03;6.40;;;1.53;;
18159;SDS011;9205;52.032;4.314;2023-08-01T12:52:31;5.07;;;1.50;;
18159;SDS011;9205;52.032;4.314;2023-08-01T12:54:59;7.83;;;1.70;;
18159;SDS011;9205;52.032;4.314;2023-08-01T12:57:26;7.40;;;1.73;;
18159;SDS011;9205;52.032;4.314;2023-08-01T12:59:53;5.33;;;1.27;;
18159;SDS011;9205;52.032;4.314;2023-08-01T13:02:21;2.40;;;1.47;;
18159;SDS011;9205;52.032;4.314;2023-08-01T13:04:48;4.23;;;1.53;;
18159;SDS011;9205;52.032;4.314;2023-08-01T13:07:17;5.50;;;1.50;;
18159;SDS011;9205;52.032;4.314;2023-08-01T13:09:44;3.67;;;1.50;;
18159;SDS011;9205;52.032;4.314;2023-08-01T13:12:12;5.40;;;1.70;;
18159;SDS011;9205;52.032;4.314;2023-08-01T13:14:39;3.83;;;1.73;;
18159;SDS011;9205;52.032;4.314;2023-08-01T13:17:07;6.60;;;1.50;;
18159;SDS011;9205;52.032;4.314;2023-08-01T13:19:34;4.67;;;1.40;;
18159;SDS011;9205;52.032;4.314;2023-08-01T13:22:02;4.40;;;1.33;;
18159;SDS011;9205;52.032;4.314;2023-08-01T13:24:30;3.73;;;1.50;;
18159;SDS011;9205;52.032;4.314;2023-08-01T13:26:58;5.43;;;1.40;;
18159;SDS011;9205;52.032;4.314;2023-08-01T13:29:25;7.33;;;1.40;;
18159;SDS011;9205;52.032;4.314;2023-08-01T13:31:53;5.47;;;1.90;;
18159;SDS011;9205;52.032;4.314;2023-08-01T13:34:20;4.67;;;1.30;;
18159;SDS011;9205;52.032;4.314;2023-08-01T13:36:49;3.57;;;1.20;;
18159;SDS011;9205;52.032;4.314;2023-08-01T13:39:16;4.57;;;1.50;;
18159;SDS011;9205;52.032;4.314;2023-08-01T13:41:45;5.23;;;1.40;;
18159;SDS011;9205;52.032;4.314;2023-08-01T13:44:12;6.33;;;1.50;;
18159;SDS011;9205;52.032;4.314;2023-08-01T13:46:39;3.90;;;1.30;;
18159;SDS011;9205;52.032;4.314;2023-08-01T13:49:07;6.03;;;1.43;;
18159;SDS011;9205;52.032;4.314;2023-08-01T13:51:34;5.23;;;1.40;;
18159;SDS011;9205;52.032;4.314;2023-08-01T13:54:01;7.07;;;1.90;;
18159;SDS011;9205;52.032;4.314;2023-08-01T13:56:29;3.73;;;1.70;;
18159;SDS011;9205;52.032;4.314;2023-08-01T13:58:57;4.13;;;1.27;;
18159;SDS011;9205;52.032;4.314;2023-08-01T14:01:25;6.40;;;1.50;;
18159;SDS011;9205;52.032;4.314;2023-08-01T14:03:52;4.93;;;1.67;;
18159;SDS011;9205;52.032;4.314;2023-08-01T14:06:19;4.87;;;1.37;;
18159;SDS011;9205;52.032;4.314;2023-08-01T14:08:47;4.13;;;1.40;;
18159;SDS011;9205;52.032;4.314;2023-08-01T14:11:14;4.30;;;1.10;;
18159;SDS011;9205;52.032;4.314;2023-08-01T14:13:41;5.27;;;1.40;;
18159;SDS011;9205;52.032;4.314;2023-08-01T14:16:10;5.13;;;1.30;;
18159;SDS011;9205;52.032;4.314;2023-08-01T14:18:37;5.07;;;1.60;;
18159;SDS011;9205;52.032;4.314;2023-08-01T14:21:05;3.37;;;1.23;;
18159;SDS011;9205;52.032;4.314;2023-08-01T14:23:32;3.03;;;1.10;;
18159;SDS011;9205;52.032;4.314;2023-08-01T14:25:59;5.50;;;1.00;;
18159;SDS011;9205;52.032;4.314;2023-08-01T14:28:26;2.70;;;1.17;;
18159;SDS011;9205;52.032;4.314;2023-08-01T14:30:54;5.03;;;1.43;;
18159;SDS011;9205;52.032;4.314;2023-08-01T14:33:23;3.93;;;1.20;;
18159;SDS011;9205;52.032;4.314;2023-08-01T14:35:50;3.87;;;1.10;;
18159;SDS011;9205;52.032;4.314;2023-08-01T14:38:17;4.63;;;1.20;;
18159;SDS011;9205;52.032;4.314;2023-08-01T14:40:45;3.17;;;1.10;;
18159;SDS011;9205;52.032;4.314;2023-08-01T14:43:12;6.43;;;1.40;;
18159;SDS011;9205;52.032;4.314;2023-08-01T14:45:40;4.07;;;1.20;;
18159;SDS011;9205;52.032;4.314;2023-08-01T14:48:07;2.93;;;1.30;;
18159;SDS011;9205;52.032;4.314;2023-08-01T14:50:37;4.03;;;1.43;;
18159;SDS011;9205;52.032;4.314;2023-08-01T14:53:04;3.27;;;1.10;;
18159;SDS011;9205;52.032;4.314;2023-08-01T14:55:33;4.43;;;1.30;;
18159;SDS011;9205;52.032;4.314;2023-08-01T14:58:00;4.23;;;1.47;;
18159;SDS011;9205;52.032;4.314;2023-08-01T15:00:28;6.10;;;1.53;;
18159;SDS011;9205;52.032;4.314;2023-08-01T15:02:55;4.10;;;1.40;;
18159;SDS011;9205;52.032;4.314;2023-08-01T15:05:24;4.83;;;1.47;;